createdAt,value
2019-04-01T00:00:28.212Z,9.48
2019-04-01T00:01:33.462Z,9.48
2019-04-01T00:02:37.130Z,9.33
2019-04-01T00:03:40.761Z,9.39
2019-04-01T00:04:44.395Z,9.37
2019-04-01T00:05:48.036Z,9.25
2019-04-01T00:06:51.673Z,9.15
2019-04-01T00:07:55.316Z,9.05
2019-04-01T00:08:58.938Z,9.07
2019-04-01T00:10:02.574Z,9.06
2019-04-01T00:11:06.204Z,9.07
2019-04-01T00:12:09.911Z,9.08
2019-04-01T00:13:13.574Z,9.22
2019-04-01T00:14:17.202Z,9.30
2019-04-01T00:15:20.852Z,9.32
2019-04-01T00:16:24.857Z,9.33
2019-04-01T00:17:28.482Z,9.39
2019-04-01T00:18:32.221Z,9.43
2019-04-01T00:19:35.790Z,9.44
2019-04-01T00:20:41.335Z,9.44
2019-04-01T00:21:44.933Z,9.44
2019-04-01T00:22:48.728Z,9.48
2019-04-01T00:23:52.629Z,9.48
2019-04-01T00:24:56.265Z,9.50
2019-04-01T00:25:59.903Z,9.50
2019-04-01T00:27:03.537Z,9.50
2019-04-01T00:28:07.103Z,9.50
2019-04-01T00:29:10.793Z,9.50
2019-04-01T00:30:14.853Z,9.47
2019-04-01T00:31:18.432Z,9.47
2019-04-01T00:32:21.986Z,9.46
2019-04-01T00:33:26.006Z,9.46
2019-04-01T00:34:30.000Z,9.34
2019-04-01T00:35:33.630Z,9.19
2019-04-01T00:36:37.243Z,9.12
2019-04-01T00:37:40.871Z,9.01
2019-04-01T00:38:44.904Z,9.01
2019-04-01T00:39:48.553Z,8.90
2019-04-01T00:40:52.205Z,8.82
2019-04-01T00:42:06.626Z,8.78
2019-04-01T00:43:28.070Z,8.77
2019-04-01T00:44:31.628Z,8.77
2019-04-01T00:45:36.976Z,8.64
2019-04-01T00:46:40.551Z,8.59
2019-04-01T00:47:44.185Z,8.55
2019-04-01T00:48:47.822Z,8.47
2019-04-01T00:49:51.445Z,8.49
2019-04-01T00:50:55.101Z,8.51
2019-04-01T00:51:58.734Z,8.55
2019-04-01T00:53:02.299Z,8.62
2019-04-01T00:54:05.947Z,8.68
2019-04-01T00:55:09.581Z,8.74
2019-04-01T00:56:13.193Z,8.74
2019-04-01T00:57:16.851Z,8.74
2019-04-01T00:58:20.389Z,8.78
2019-04-01T00:59:24.028Z,8.80
2019-04-01T01:00:27.730Z,8.82
2019-04-01T01:01:31.388Z,8.84
2019-04-01T01:02:34.965Z,8.87
2019-04-01T01:03:38.590Z,8.87
2019-04-01T01:04:42.160Z,8.87
2019-04-01T01:05:45.780Z,8.88
2019-04-01T01:06:49.445Z,8.89
2019-04-01T01:07:53.076Z,8.86
2019-04-01T01:08:56.708Z,8.83
2019-04-01T01:10:00.510Z,8.79
2019-04-01T01:11:04.164Z,8.59
2019-04-01T01:12:07.905Z,8.44
2019-04-01T01:13:11.482Z,8.28
2019-04-01T01:14:15.113Z,8.13
2019-04-01T01:15:18.754Z,8.17
2019-04-01T01:16:22.380Z,8.22
2019-04-01T01:17:26.087Z,8.21
2019-04-01T01:18:29.665Z,8.23
2019-04-01T01:19:33.290Z,8.26
2019-04-01T01:20:36.918Z,8.26
2019-04-01T01:21:40.557Z,8.23
2019-04-01T01:22:44.219Z,8.23
2019-04-01T01:23:47.857Z,8.17
2019-04-01T01:24:51.486Z,8.23
2019-04-01T01:25:55.112Z,8.28
2019-04-01T01:26:58.738Z,8.28
2019-04-01T01:28:02.402Z,8.25
2019-04-01T01:29:06.038Z,8.25
2019-04-01T01:30:09.970Z,8.25
2019-04-01T01:31:13.538Z,8.23
2019-04-01T01:32:17.179Z,8.25
2019-04-01T01:33:20.767Z,8.21
2019-04-01T01:34:24.401Z,7.95
2019-04-01T01:35:28.035Z,7.80
2019-04-01T01:36:31.675Z,7.76
2019-04-01T01:37:35.230Z,7.81
2019-04-01T01:38:38.899Z,7.77
2019-04-01T01:39:42.522Z,7.66
2019-04-01T01:40:46.150Z,7.73
2019-04-01T01:41:49.776Z,7.76
2019-04-01T01:42:53.404Z,7.81
2019-04-01T01:43:57.061Z,7.87
2019-04-01T01:45:00.633Z,7.91
2019-04-01T01:46:04.253Z,7.96
2019-04-01T01:47:07.885Z,7.99
2019-04-01T01:48:11.517Z,8.00
2019-04-01T01:49:15.199Z,8.01
2019-04-01T01:50:18.819Z,8.04
2019-04-01T01:51:22.450Z,8.03
2019-04-01T01:52:26.089Z,8.06
2019-04-01T01:53:29.717Z,8.07
2019-04-01T01:54:33.313Z,8.07
2019-04-01T01:55:37.298Z,7.85
2019-04-01T01:56:40.936Z,7.72
2019-04-01T01:57:44.923Z,7.59
2019-04-01T01:58:48.485Z,7.39
2019-04-01T01:59:52.144Z,7.22
2019-04-01T02:00:57.246Z,7.22
2019-04-01T02:02:00.884Z,7.32
2019-04-01T02:03:04.533Z,7.37
2019-04-01T02:04:08.162Z,7.42
2019-04-01T02:05:11.813Z,7.46
2019-04-01T02:06:15.441Z,7.46
2019-04-01T02:07:19.122Z,7.45
2019-04-01T02:08:22.674Z,7.47
2019-04-01T02:09:26.383Z,7.49
2019-04-01T02:10:30.012Z,7.50
2019-04-01T02:11:34.070Z,7.53
2019-04-01T02:12:37.812Z,7.55
2019-04-01T02:13:41.866Z,7.57
2019-04-01T02:14:45.504Z,7.57
2019-04-01T02:15:49.137Z,7.57
2019-04-01T02:16:52.772Z,7.43
2019-04-01T02:17:56.436Z,7.26
2019-04-01T02:19:00.066Z,7.17
2019-04-01T02:20:04.193Z,7.09
2019-04-01T02:21:07.827Z,6.96
2019-04-01T02:22:11.453Z,6.98
2019-04-01T02:23:15.062Z,7.03
2019-04-01T02:24:18.701Z,7.10
2019-04-01T02:25:22.330Z,7.06
2019-04-01T02:26:25.970Z,7.11
2019-04-01T02:27:29.523Z,7.16
2019-04-01T02:28:33.164Z,7.19
2019-04-01T02:29:36.809Z,7.20
2019-04-01T02:30:40.443Z,7.21
2019-04-01T02:31:44.118Z,7.22
2019-04-01T02:32:47.751Z,7.23
2019-04-01T02:33:51.393Z,7.19
2019-04-01T02:34:54.956Z,7.19
2019-04-01T02:35:58.596Z,7.22
2019-04-01T02:37:02.300Z,7.15
2019-04-01T02:38:05.907Z,7.04
2019-04-01T02:39:09.551Z,6.94
2019-04-01T02:40:13.186Z,6.83
2019-04-01T02:41:16.819Z,6.69
2019-04-01T02:42:20.481Z,6.67
2019-04-01T02:43:24.187Z,6.64
2019-04-01T02:44:27.820Z,6.73
2019-04-01T02:45:31.456Z,6.77
2019-04-01T02:46:35.083Z,6.79
2019-04-01T02:47:38.752Z,6.73
2019-04-01T02:48:42.387Z,6.73
2019-04-01T02:49:46.005Z,6.79
2019-04-01T02:50:49.642Z,6.82
2019-04-01T02:51:53.274Z,6.89
2019-04-01T02:52:56.943Z,6.95
2019-04-01T02:54:00.569Z,6.90
2019-04-01T02:55:06.913Z,6.88
2019-04-01T02:56:10.911Z,6.81
2019-04-01T02:57:14.539Z,6.77
2019-04-01T02:58:18.196Z,6.67
2019-04-01T02:59:21.830Z,6.61
2019-04-01T03:00:25.470Z,6.57
2019-04-01T03:01:29.104Z,6.52
2019-04-01T03:02:32.730Z,6.45
2019-04-01T03:03:36.400Z,6.49
2019-04-01T03:04:40.042Z,6.64
2019-04-01T03:05:43.684Z,6.75
2019-04-01T03:06:47.316Z,6.80
2019-04-01T03:07:51.016Z,6.86
2019-04-01T03:08:54.620Z,6.88
2019-04-01T03:09:58.181Z,6.87
2019-04-01T03:11:01.893Z,6.91
2019-04-01T03:12:05.524Z,6.92
2019-04-01T03:13:09.158Z,6.90
2019-04-01T03:14:12.832Z,6.82
2019-04-01T03:15:16.468Z,6.66
2019-04-01T03:16:20.105Z,6.54
2019-04-01T03:17:23.742Z,6.41
2019-04-01T03:18:27.382Z,6.29
2019-04-01T03:19:31.051Z,6.25
2019-04-01T03:20:35.010Z,6.32
2019-04-01T03:21:38.608Z,6.37
2019-04-01T03:22:42.243Z,6.41
2019-04-01T03:23:51.715Z,6.46
2019-04-01T03:24:55.389Z,6.49
2019-04-01T03:25:59.029Z,6.48
2019-04-01T03:27:02.661Z,6.49
2019-04-01T03:28:06.297Z,6.50
2019-04-01T03:29:10.187Z,6.52
2019-04-01T03:30:13.846Z,6.53
2019-04-01T03:31:17.471Z,6.53
2019-04-01T03:32:21.097Z,6.22
2019-04-01T03:33:24.735Z,5.97
2019-04-01T03:34:28.393Z,5.81
2019-04-01T03:35:32.040Z,5.68
2019-04-01T03:36:35.660Z,5.55
2019-04-01T03:37:39.302Z,5.41
2019-04-01T03:38:42.874Z,5.54
2019-04-01T03:39:46.497Z,5.66
2019-04-01T03:40:50.169Z,5.77
2019-04-01T03:41:53.810Z,5.82
2019-04-01T03:42:57.681Z,5.87
2019-04-01T03:44:01.384Z,5.93
2019-04-01T03:45:06.416Z,5.97
2019-04-01T03:46:10.168Z,6.01
2019-04-01T03:47:13.797Z,6.02
2019-04-01T03:48:17.420Z,6.03
2019-04-01T03:49:21.061Z,6.04
2019-04-01T03:50:24.755Z,5.97
2019-04-01T03:51:28.420Z,5.81
2019-04-01T03:52:32.056Z,5.66
2019-04-01T03:53:36.001Z,5.59
2019-04-01T03:54:39.629Z,5.53
2019-04-01T03:55:43.182Z,5.53
2019-04-01T03:56:47.239Z,5.54
2019-04-01T03:57:50.871Z,5.54
2019-04-01T03:58:54.438Z,5.53
2019-04-01T03:59:58.097Z,5.42
2019-04-01T04:01:01.716Z,5.30
2019-04-01T04:02:05.365Z,5.23
2019-04-01T04:03:08.996Z,5.12
2019-04-01T04:04:13.021Z,4.97
2019-04-01T04:05:16.622Z,4.94
2019-04-01T04:06:20.269Z,5.01
2019-04-01T04:07:23.937Z,5.03
2019-04-01T04:08:27.597Z,4.98
2019-04-01T04:09:31.149Z,5.03
2019-04-01T04:10:35.565Z,5.02
2019-04-01T04:11:39.196Z,4.99
2019-04-01T04:12:42.938Z,4.99
2019-04-01T04:13:46.605Z,5.04
2019-04-01T04:14:51.429Z,5.23
2019-04-01T04:15:55.496Z,5.35
2019-04-01T04:16:59.247Z,5.36
2019-04-01T04:18:02.948Z,5.31
2019-04-01T04:19:06.681Z,5.31
2019-04-01T04:20:10.588Z,5.20
2019-04-01T04:21:14.702Z,5.07
2019-04-01T04:22:18.878Z,4.94
2019-04-01T04:23:22.542Z,4.96
2019-04-01T04:24:26.169Z,4.99
2019-04-01T04:25:29.885Z,4.98
2019-04-01T04:26:33.821Z,4.94
2019-04-01T04:27:37.546Z,4.91
2019-04-01T04:28:41.230Z,4.90
2019-04-01T04:29:44.853Z,4.89
2019-04-01T04:30:48.568Z,4.82
2019-04-01T04:31:52.199Z,4.73
2019-04-01T04:32:55.832Z,4.63
2019-04-01T04:33:59.791Z,4.50
2019-04-01T04:35:03.840Z,4.44
2019-04-01T04:36:07.960Z,4.30
2019-04-01T04:37:11.613Z,4.25
2019-04-01T04:38:15.255Z,4.17
2019-04-01T04:39:19.000Z,4.15
2019-04-01T04:40:22.644Z,4.19
2019-04-01T04:41:26.296Z,4.22
2019-04-01T04:42:30.000Z,4.25
2019-04-01T04:43:36.266Z,4.28
2019-04-01T04:44:39.913Z,4.21
2019-04-01T04:45:43.566Z,4.13
2019-04-01T04:46:47.281Z,4.07
2019-04-01T04:47:50.921Z,4.07
2019-04-01T04:48:54.630Z,4.12
2019-04-01T04:49:58.561Z,4.06
2019-04-01T04:51:02.227Z,4.02
2019-04-01T04:52:05.864Z,4.05
2019-04-01T04:53:09.615Z,4.08
2019-04-01T04:54:13.267Z,4.08
2019-04-01T04:55:18.534Z,4.03
2019-04-01T04:56:22.270Z,4.01
2019-04-01T04:57:25.912Z,4.04
2019-04-01T04:58:29.678Z,4.01
2019-04-01T04:59:33.324Z,3.98
2019-04-01T05:00:37.033Z,4.01
2019-04-01T05:01:40.754Z,4.08
2019-04-01T05:02:44.558Z,4.07
2019-04-01T05:03:48.206Z,4.02
2019-04-01T05:04:51.921Z,4.02
2019-04-01T05:05:55.636Z,4.10
2019-04-01T05:07:00.942Z,4.15
2019-04-01T05:08:04.630Z,4.16
2019-04-01T05:09:09.151Z,4.15
2019-04-01T05:10:12.792Z,4.17
2019-04-01T05:11:16.442Z,4.17
2019-04-01T05:12:21.698Z,4.29
2019-04-01T05:13:25.451Z,4.52
2019-04-01T05:14:29.091Z,4.61
2019-04-01T05:15:35.341Z,4.68
2019-04-01T05:16:39.068Z,4.66
2019-04-01T05:17:42.734Z,4.68
2019-04-01T05:18:46.336Z,4.75
2019-04-01T05:19:50.436Z,4.81
2019-04-01T05:20:55.062Z,4.82
2019-04-01T05:21:59.541Z,4.84
2019-04-01T05:23:04.282Z,4.82
2019-04-01T05:24:08.423Z,4.87
2019-04-01T05:25:13.738Z,4.95
2019-04-01T05:26:22.224Z,4.98
2019-04-01T05:27:26.733Z,4.95
2019-04-01T05:28:30.740Z,4.91
2019-04-01T05:29:35.776Z,4.76
2019-04-01T05:30:40.489Z,4.67
2019-04-01T05:31:46.889Z,4.62
2019-04-01T05:32:52.641Z,4.67
2019-04-01T05:33:58.710Z,4.65
2019-04-01T05:35:03.975Z,4.64
2019-04-01T05:36:08.409Z,4.63
2019-04-01T05:37:12.117Z,4.59
2019-04-01T05:38:16.769Z,4.67
2019-04-01T05:39:21.018Z,4.73
2019-04-01T05:40:24.690Z,4.95
2019-04-01T05:41:28.449Z,4.99
2019-04-01T05:42:32.080Z,4.96
2019-04-01T05:43:35.809Z,4.95
2019-04-01T05:44:39.459Z,4.93
2019-04-01T05:45:43.118Z,4.92
2019-04-01T05:46:46.769Z,4.91
2019-04-01T05:47:52.062Z,4.86
2019-04-01T05:48:55.709Z,4.90
2019-04-01T05:50:00.374Z,4.90
2019-04-01T05:51:04.069Z,4.93
2019-04-01T05:52:08.309Z,5.01
2019-04-01T05:53:11.955Z,5.02
2019-04-01T05:54:15.622Z,5.07
2019-04-01T05:55:19.328Z,5.06
2019-04-01T05:56:23.508Z,5.09
2019-04-01T05:57:27.639Z,5.16
2019-04-01T05:58:31.401Z,5.21
2019-04-01T05:59:35.021Z,5.27
2019-04-01T06:00:40.395Z,5.39
2019-04-01T06:01:48.130Z,5.42
2019-04-01T06:02:52.262Z,5.41
2019-04-01T06:03:55.898Z,5.40
2019-04-01T06:04:59.626Z,5.42
2019-04-01T06:06:03.286Z,5.46
2019-04-01T06:07:06.971Z,5.53
2019-04-01T06:08:10.877Z,5.62
2019-04-01T06:09:14.550Z,5.84
2019-04-01T06:10:18.280Z,5.97
2019-04-01T06:11:22.008Z,5.93
2019-04-01T06:12:28.646Z,6.05
2019-04-01T06:13:32.293Z,6.18
2019-04-01T06:14:35.929Z,6.39
2019-04-01T06:15:39.560Z,6.51
2019-04-01T06:16:43.271Z,6.60
2019-04-01T06:17:47.013Z,6.68
2019-04-01T06:18:50.950Z,6.70
2019-04-01T06:19:54.622Z,6.74
2019-04-01T06:20:58.261Z,6.76
2019-04-01T06:22:01.904Z,6.81
2019-04-01T06:23:06.035Z,6.73
2019-04-01T06:24:09.644Z,6.70
2019-04-01T06:25:13.272Z,6.70
2019-04-01T06:26:17.252Z,6.75
2019-04-01T06:27:20.887Z,6.75
2019-04-01T06:28:24.564Z,6.80
2019-04-01T06:29:28.207Z,6.85
2019-04-01T06:30:31.940Z,6.89
2019-04-01T06:31:35.583Z,7.00
2019-04-01T06:32:39.260Z,7.05
2019-04-01T06:33:42.894Z,7.09
2019-04-01T06:34:52.770Z,7.27
2019-04-01T06:35:52.014Z,7.40
2019-04-01T06:36:55.640Z,7.54
2019-04-01T06:37:59.299Z,7.71
2019-04-01T06:39:04.632Z,7.91
2019-04-01T06:40:08.337Z,8.03
2019-04-01T06:41:11.979Z,8.07
2019-04-01T06:42:15.687Z,8.16
2019-04-01T06:43:19.421Z,8.36
2019-04-01T06:44:23.052Z,8.61
2019-04-01T06:45:26.787Z,8.72
2019-04-01T06:46:30.421Z,8.96
2019-04-01T06:47:34.055Z,9.12
2019-04-01T06:48:37.722Z,9.24
2019-04-01T06:49:41.661Z,9.37
2019-04-01T06:50:45.296Z,9.39
2019-04-01T06:51:48.938Z,9.40
2019-04-01T06:52:52.573Z,9.64
2019-04-01T06:53:56.249Z,9.80
2019-04-01T06:54:59.893Z,9.90
2019-04-01T06:56:03.539Z,9.98
2019-04-01T06:57:07.187Z,10.04
2019-04-01T06:58:12.067Z,10.19
2019-04-01T06:59:16.004Z,10.38
2019-04-01T07:00:19.746Z,10.54
2019-04-01T07:01:23.397Z,10.69
2019-04-01T07:02:27.140Z,10.91
2019-04-01T07:03:30.768Z,10.91
2019-04-01T07:04:34.442Z,10.91
2019-04-01T07:05:38.086Z,11.12
2019-04-01T07:06:41.761Z,11.52
2019-04-01T07:07:45.428Z,11.65
2019-04-01T07:08:49.079Z,11.90
2019-04-01T07:09:52.776Z,12.16
2019-04-01T07:10:56.428Z,12.16
2019-04-01T07:12:00.077Z,12.49
2019-04-01T07:13:03.744Z,12.49
2019-04-01T07:14:07.423Z,12.55
2019-04-01T07:15:11.435Z,12.57
2019-04-01T07:16:16.142Z,12.59
2019-04-01T07:17:20.086Z,12.65
2019-04-01T07:18:23.931Z,12.65
2019-04-01T07:19:27.636Z,12.82
2019-04-01T07:20:31.375Z,12.90
2019-04-01T07:21:35.226Z,13.23
2019-04-01T07:22:38.877Z,13.55
2019-04-01T07:23:42.541Z,13.88
2019-04-01T07:24:46.234Z,14.17
2019-04-01T07:25:50.313Z,14.50
2019-04-01T07:26:53.992Z,14.47
2019-04-01T07:27:57.663Z,14.23
2019-04-01T07:29:01.325Z,14.12
2019-04-01T07:30:06.808Z,14.42
2019-04-01T07:31:10.465Z,14.82
2019-04-01T07:32:14.642Z,15.05
2019-04-01T07:33:18.458Z,15.05
2019-04-01T07:34:22.297Z,15.21
2019-04-01T07:35:26.023Z,15.22
2019-04-01T07:36:29.700Z,15.49
2019-04-01T07:37:33.360Z,15.60
2019-04-01T07:38:37.215Z,15.64
2019-04-01T07:39:40.867Z,15.68
2019-04-01T07:40:44.563Z,15.69
2019-04-01T07:41:48.210Z,15.94
2019-04-01T07:42:53.122Z,16.25
2019-04-01T07:43:57.038Z,16.32
2019-04-01T07:45:00.694Z,16.44
2019-04-01T07:46:07.877Z,16.52
2019-04-01T07:47:09.760Z,16.76
2019-04-01T07:48:13.415Z,16.94
2019-04-01T07:49:17.076Z,16.99
2019-04-01T07:50:20.729Z,17.26
2019-04-01T07:51:24.438Z,17.22
2019-04-01T07:52:28.113Z,17.32
2019-04-01T07:53:33.654Z,17.35
2019-04-01T07:54:37.689Z,17.43
2019-04-01T07:55:41.442Z,17.72
2019-04-01T07:56:45.212Z,18.10
2019-04-01T07:57:48.888Z,18.29
2019-04-01T07:58:52.721Z,18.41
2019-04-01T07:59:57.166Z,18.10
2019-04-01T08:01:00.924Z,17.73
2019-04-01T08:02:04.622Z,17.70
2019-04-01T08:03:12.007Z,17.71
2019-04-01T08:04:15.647Z,17.95
2019-04-01T08:05:19.395Z,18.23
2019-04-01T08:06:23.065Z,18.54
2019-04-01T08:07:26.735Z,18.59
2019-04-01T08:08:30.387Z,18.67
2019-04-01T08:09:34.441Z,18.91
2019-04-01T08:10:38.202Z,19.14
2019-04-01T08:11:41.771Z,19.46
2019-04-01T08:12:45.489Z,19.70
2019-04-01T08:13:49.168Z,19.86
2019-04-01T08:14:53.014Z,19.77
2019-04-01T08:15:56.695Z,19.93
2019-04-01T08:17:00.340Z,20.15
2019-04-01T08:18:04.032Z,20.44
2019-04-01T08:19:08.177Z,20.45
2019-04-01T08:20:12.252Z,20.52
2019-04-01T08:21:18.827Z,20.30
2019-04-01T08:22:22.500Z,20.26
2019-04-01T08:23:26.199Z,20.31
2019-04-01T08:24:29.866Z,20.83
2019-04-01T08:25:33.517Z,21.39
2019-04-01T08:26:37.173Z,21.87
2019-04-01T08:27:40.874Z,21.92
2019-04-01T08:28:44.545Z,21.87
2019-04-01T08:29:48.185Z,21.90
2019-04-01T08:30:52.207Z,21.91
2019-04-01T08:31:55.843Z,21.98
2019-04-01T08:32:59.461Z,22.14
2019-04-01T08:34:03.326Z,22.25
2019-04-01T08:35:07.491Z,22.48
2019-04-01T08:36:11.162Z,22.62
2019-04-01T08:37:14.794Z,22.69
2019-04-01T08:38:22.831Z,22.45
2019-04-01T08:39:26.522Z,22.37
2019-04-01T08:40:30.158Z,22.59
2019-04-01T08:41:33.801Z,22.85
2019-04-01T08:42:37.543Z,23.48
2019-04-01T08:43:41.668Z,24.15
2019-04-01T08:44:45.298Z,24.11
2019-04-01T08:45:48.951Z,24.09
2019-04-01T08:46:52.592Z,24.18
2019-04-01T08:47:56.407Z,24.21
2019-04-01T08:49:02.628Z,24.42
2019-04-01T08:50:07.268Z,24.74
2019-04-01T08:51:10.951Z,24.90
2019-04-01T08:52:14.954Z,25.25
2019-04-01T08:53:18.620Z,25.50
2019-04-01T08:54:22.951Z,25.65
2019-04-01T08:55:26.635Z,26.13
2019-04-01T08:56:31.913Z,26.33
2019-04-01T08:57:35.525Z,26.09
2019-04-01T08:58:39.470Z,26.25
2019-04-01T08:59:43.303Z,26.74
2019-04-01T09:00:47.341Z,27.17
2019-04-01T09:01:51.197Z,27.43
2019-04-01T09:02:55.630Z,27.31
2019-04-01T09:03:59.603Z,27.30
2019-04-01T09:05:03.275Z,27.87
2019-04-01T09:06:07.133Z,28.19
2019-04-01T09:07:11.307Z,28.52
2019-04-01T09:08:14.964Z,28.78
2019-04-01T09:09:18.639Z,28.74
2019-04-01T09:10:22.293Z,28.43
2019-04-01T09:11:27.601Z,28.65
2019-04-01T09:12:35.899Z,28.88
2019-04-01T09:13:39.800Z,29.18
2019-04-01T09:14:44.598Z,29.44
2019-04-01T09:15:48.682Z,29.85
2019-04-01T09:16:52.879Z,30.39
2019-04-01T09:17:56.530Z,30.81
2019-04-01T09:19:00.191Z,31.05
2019-04-01T09:20:04.248Z,30.88
2019-04-01T09:21:07.872Z,30.47
2019-04-01T09:22:11.579Z,30.87
2019-04-01T09:23:15.572Z,31.11
2019-04-01T09:24:19.233Z,31.14
2019-04-01T09:25:22.877Z,31.17
2019-04-01T09:26:26.507Z,30.78
2019-04-01T09:27:30.209Z,30.30
2019-04-01T09:28:33.862Z,30.64
2019-04-01T09:29:37.836Z,31.23
2019-04-01T09:30:41.481Z,31.88
2019-04-01T09:31:45.155Z,32.37
2019-04-01T09:32:48.882Z,32.67
2019-04-01T09:33:52.435Z,32.52
2019-04-01T09:34:56.196Z,32.54
2019-04-01T09:35:59.853Z,32.93
2019-04-01T09:37:03.593Z,33.08
2019-04-01T09:38:07.314Z,33.41
2019-04-01T09:39:11.186Z,33.54
2019-04-01T09:40:14.841Z,33.78
2019-04-01T09:41:18.496Z,33.60
2019-04-01T09:42:22.541Z,33.46
2019-04-01T09:43:26.217Z,33.26
2019-04-01T09:44:36.526Z,33.52
2019-04-01T09:45:35.447Z,33.53
2019-04-01T09:46:40.545Z,34.10
2019-04-01T09:47:44.354Z,34.02
2019-04-01T09:48:47.970Z,34.29
2019-04-01T09:49:51.753Z,34.34
2019-04-01T09:50:55.385Z,34.48
2019-04-01T09:51:59.055Z,34.41
2019-04-01T09:53:02.845Z,33.80
2019-04-01T09:54:09.285Z,33.80
2019-04-01T09:55:13.103Z,33.71
2019-04-01T09:56:16.765Z,34.11
2019-04-01T09:57:20.397Z,34.50
2019-04-01T09:58:24.081Z,34.88
2019-04-01T09:59:27.743Z,35.22
2019-04-01T10:00:31.408Z,35.01
2019-04-01T10:01:35.041Z,35.16
2019-04-01T10:02:38.758Z,35.09
2019-04-01T10:03:42.410Z,35.04
2019-04-01T10:04:46.068Z,35.02
2019-04-01T10:05:49.715Z,35.22
2019-04-01T10:06:53.360Z,35.35
2019-04-01T10:07:57.071Z,35.14
2019-04-01T10:09:00.739Z,34.86
2019-04-01T10:10:05.475Z,34.55
2019-04-01T10:11:12.465Z,34.25
2019-04-01T10:12:14.543Z,34.43
2019-04-01T10:13:18.340Z,34.33
2019-04-01T10:14:22.010Z,34.46
2019-04-01T10:15:26.007Z,34.22
2019-04-01T10:16:29.722Z,33.92
2019-04-01T10:17:33.356Z,33.47
2019-04-01T10:18:37.037Z,33.40
2019-04-01T10:19:40.678Z,32.94
2019-04-01T10:20:44.714Z,33.56
2019-04-01T10:21:48.348Z,34.21
2019-04-01T10:22:51.991Z,34.65
2019-04-01T10:23:55.689Z,34.74
2019-04-01T10:24:59.340Z,34.43
2019-04-01T10:26:02.992Z,34.64
2019-04-01T10:27:06.637Z,35.05
2019-04-01T10:28:10.286Z,35.28
2019-04-01T10:29:14.037Z,35.21
2019-04-01T10:30:17.968Z,35.24
2019-04-01T10:31:29.058Z,35.33
2019-04-01T10:32:34.266Z,34.93
2019-04-01T10:33:38.043Z,34.73
2019-04-01T10:34:41.677Z,34.72
2019-04-01T10:35:45.304Z,34.55
2019-04-01T10:36:48.941Z,34.42
2019-04-01T10:37:53.016Z,34.46
2019-04-01T10:38:56.797Z,34.53
2019-04-01T10:40:00.883Z,35.16
2019-04-01T10:41:04.810Z,35.87
2019-04-01T10:42:08.533Z,36.27
2019-04-01T10:43:12.510Z,36.46
2019-04-01T10:44:16.319Z,36.46
2019-04-01T10:45:20.079Z,36.04
2019-04-01T10:46:23.783Z,36.28
2019-04-01T10:47:27.535Z,36.17
2019-04-01T10:48:32.125Z,36.26
2019-04-01T10:49:35.865Z,35.84
2019-04-01T10:50:39.594Z,36.07
2019-04-01T10:51:43.596Z,36.57
2019-04-01T10:52:47.287Z,37.05
2019-04-01T10:53:51.040Z,37.27
2019-04-01T10:54:54.889Z,36.77
2019-04-01T10:55:58.527Z,36.70
2019-04-01T10:57:02.211Z,36.50
2019-04-01T10:58:05.861Z,35.95
2019-04-01T10:59:09.542Z,36.04
2019-04-01T11:00:13.754Z,36.39
2019-04-01T11:01:17.599Z,36.53
2019-04-01T11:02:21.266Z,36.43
2019-04-01T11:03:25.224Z,36.53
2019-04-01T11:04:28.925Z,36.28
2019-04-01T11:05:32.730Z,36.12
2019-04-01T11:06:36.399Z,35.71
2019-04-01T11:07:40.127Z,35.41
2019-04-01T11:08:43.780Z,35.69
2019-04-01T11:09:47.444Z,35.86
2019-04-01T11:10:51.111Z,35.69
2019-04-01T11:11:55.164Z,35.85
2019-04-01T11:12:59.551Z,35.98
2019-04-01T11:14:03.299Z,35.71
2019-04-01T11:15:09.011Z,35.46
2019-04-01T11:16:12.668Z,34.38
2019-04-01T11:17:16.316Z,34.16
2019-04-01T11:18:20.106Z,33.50
2019-04-01T11:19:24.149Z,33.82
2019-04-01T11:20:27.793Z,34.28
2019-04-01T11:21:31.500Z,34.57
2019-04-01T11:22:56.152Z,35.01
2019-04-01T11:23:59.793Z,35.11
2019-04-01T11:25:04.586Z,35.38
2019-04-01T11:26:08.268Z,35.21
2019-04-01T11:27:11.971Z,35.62
2019-04-01T11:28:15.832Z,35.17
2019-04-01T11:29:19.826Z,35.42
2019-04-01T11:30:23.484Z,34.74
2019-04-01T11:31:27.145Z,34.95
2019-04-01T11:32:32.396Z,35.18
2019-04-01T11:33:36.017Z,35.63
2019-04-01T11:34:39.703Z,35.15
2019-04-01T11:35:43.381Z,35.11
2019-04-01T11:36:47.054Z,35.43
2019-04-01T11:37:50.794Z,35.31
2019-04-01T11:38:54.470Z,36.01
2019-04-01T11:39:58.122Z,36.63
2019-04-01T11:41:01.737Z,36.42
2019-04-01T11:42:05.405Z,36.56
2019-04-01T11:43:09.199Z,36.11
2019-04-01T11:44:13.059Z,36.01
2019-04-01T11:45:16.841Z,36.15
2019-04-01T11:46:20.496Z,35.39
2019-04-01T11:47:24.169Z,35.51
2019-04-01T11:48:27.661Z,35.88
2019-04-01T11:49:31.324Z,36.36
2019-04-01T11:50:35.008Z,37.16
2019-04-01T11:51:40.228Z,37.73
2019-04-01T11:52:44.117Z,37.81
2019-04-01T11:53:47.840Z,37.76
2019-04-01T11:54:51.563Z,37.24
2019-04-01T11:55:55.232Z,36.58
2019-04-01T11:56:58.898Z,36.39
2019-04-01T11:58:02.532Z,36.56
2019-04-01T11:59:06.289Z,36.69
2019-04-01T12:00:13.409Z,36.51
2019-04-01T12:01:17.320Z,36.65
2019-04-01T12:02:21.071Z,37.21
2019-04-01T12:03:24.703Z,37.44
2019-04-01T12:04:28.384Z,37.12
2019-04-01T12:05:32.157Z,37.04
2019-04-01T12:06:35.823Z,36.78
2019-04-01T12:07:39.504Z,36.92
2019-04-01T12:08:43.157Z,36.66
2019-04-01T12:09:46.804Z,35.69
2019-04-01T12:10:50.441Z,35.24
2019-04-01T12:11:54.106Z,35.25
2019-04-01T12:12:57.771Z,35.12
2019-04-01T12:14:04.921Z,34.69
2019-04-01T12:15:07.316Z,35.00
2019-04-01T12:16:11.046Z,35.50
2019-04-01T12:17:14.665Z,36.03
2019-04-01T12:18:18.459Z,35.88
2019-04-01T12:19:22.125Z,34.86
2019-04-01T12:20:25.801Z,35.36
2019-04-01T12:21:29.438Z,35.90
2019-04-01T12:22:33.100Z,36.18
2019-04-01T12:23:36.764Z,35.53
2019-04-01T12:24:40.508Z,35.60
2019-04-01T12:25:44.184Z,35.07
2019-04-01T12:26:47.895Z,34.82
2019-04-01T12:27:51.554Z,34.46
2019-04-01T12:28:55.180Z,34.07
2019-04-01T12:29:58.865Z,34.21
2019-04-01T12:31:02.507Z,34.07
2019-04-01T12:32:06.155Z,34.18
2019-04-01T12:33:12.372Z,34.48
2019-04-01T12:34:17.563Z,33.94
2019-04-01T12:35:21.518Z,33.59
2019-04-01T12:36:25.093Z,33.77
2019-04-01T12:37:30.151Z,34.28
2019-04-01T12:38:33.994Z,34.12
2019-04-01T12:39:37.659Z,33.63
2019-04-01T12:40:41.334Z,33.54
2019-04-01T12:41:44.950Z,33.54
2019-04-01T12:42:50.849Z,33.18
2019-04-01T12:43:53.895Z,33.38
2019-04-01T12:44:57.528Z,33.84
2019-04-01T12:46:03.215Z,33.98
2019-04-01T12:47:06.853Z,33.81
2019-04-01T12:48:11.909Z,33.48
2019-04-01T12:49:15.492Z,33.05
2019-04-01T12:50:19.158Z,32.49
2019-04-01T12:51:23.266Z,32.38
2019-04-01T12:52:26.860Z,32.72
2019-04-01T12:53:30.931Z,32.73
2019-04-01T12:54:34.636Z,33.09
2019-04-01T12:55:38.287Z,33.27
2019-04-01T12:56:41.941Z,33.30
2019-04-01T12:57:48.320Z,33.35
2019-04-01T12:58:50.959Z,33.50
2019-04-01T12:59:54.585Z,32.92
2019-04-01T13:01:01.045Z,32.91
2019-04-01T13:02:03.797Z,33.45
2019-04-01T13:03:07.457Z,33.70
2019-04-01T13:04:11.109Z,32.98
2019-04-01T13:05:14.767Z,32.64
2019-04-01T13:06:18.431Z,32.66
2019-04-01T13:07:22.101Z,32.92
2019-04-01T13:08:25.750Z,33.08
2019-04-01T13:09:29.792Z,33.45
2019-04-01T13:10:33.442Z,33.66
2019-04-01T13:11:37.411Z,33.75
2019-04-01T13:12:41.077Z,33.31
2019-04-01T13:13:44.850Z,32.85
2019-04-01T13:14:48.759Z,32.76
2019-04-01T13:15:52.414Z,32.85
2019-04-01T13:16:56.062Z,32.58
2019-04-01T13:17:59.768Z,32.61
2019-04-01T13:19:03.388Z,32.82
2019-04-01T13:20:07.324Z,32.71
2019-04-01T13:21:11.204Z,32.73
2019-04-01T13:22:15.177Z,32.75
2019-04-01T13:23:18.875Z,32.50
2019-04-01T13:24:22.462Z,32.40
2019-04-01T13:25:26.526Z,32.28
2019-04-01T13:26:31.109Z,31.96
2019-04-01T13:27:34.874Z,32.20
2019-04-01T13:28:42.156Z,32.43
2019-04-01T13:29:43.930Z,32.51
2019-04-01T13:30:48.587Z,32.72
2019-04-01T13:31:52.276Z,32.56
2019-04-01T13:32:55.924Z,32.46
2019-04-01T13:33:59.615Z,32.46
2019-04-01T13:35:03.884Z,32.37
2019-04-01T13:36:08.084Z,31.99
2019-04-01T13:37:11.883Z,32.17
2019-04-01T13:38:15.637Z,31.91
2019-04-01T13:39:19.381Z,32.10
2019-04-01T13:40:23.036Z,32.30
2019-04-01T13:41:41.505Z,32.25
2019-04-01T13:42:32.489Z,32.59
2019-04-01T13:43:36.147Z,32.84
2019-04-01T13:44:39.831Z,33.02
2019-04-01T13:45:43.483Z,33.20
2019-04-01T13:46:48.644Z,32.97
2019-04-01T13:47:52.548Z,32.67
2019-04-01T13:48:58.600Z,32.55
2019-04-01T13:50:03.504Z,32.54
2019-04-01T13:51:07.459Z,32.29
2019-04-01T13:52:11.101Z,31.59
2019-04-01T13:53:14.723Z,31.00
2019-04-01T13:54:18.620Z,30.55
2019-04-01T13:55:22.231Z,30.59
2019-04-01T13:56:25.888Z,30.96
2019-04-01T13:57:29.512Z,31.01